Time,TemperatureF,DewpointF,PressureIn,WindDirection,WindDirectionDegrees,WindSpeedMPH,WindSpeedGustMPH,Humidity,HourlyPrecipIn,Conditions,Clouds,dailyrainin,SoftwareType,DateUTC
2013-04-02 00:00:00,49.8,32.9,29.98,WNW,285,2.0,3.0,52,0.00,,OVC055,0.00,VWS V14.01,2013-04-02 04:00:00,
2013-04-02 00:05:00,49.7,33.3,29.98,SW,227,0.0,3.0,53,0.00,,OVC055,0.00,VWS V14.01,2013-04-02 04:05:00,
2013-04-02 00:10:00,49.6,33.2,29.98,SW,228,0.0,3.0,53,0.00,,OVC055,0.00,VWS V14.01,2013-04-02 04:10:00,
2013-04-02 00:15:00,49.4,33.0,29.98,WSW,254,1.0,4.0,53,0.00,,OVC055,0.00,VWS V14.01,2013-04-02 04:15:00,
2013-04-02 00:20:00,49.1,33.2,29.98,SW,230,0.0,4.0,54,0.00,,OVC055,0.00,VWS V14.01,2013-04-02 04:20:00,
2013-04-02 00:25:00,49.1,32.7,29.98,SW,230,1.0,4.0,53,0.00,,OVC055,0.00,VWS V14.01,2013-04-02 04:25:00,
2013-04-02 00:30:00,49.0,33.1,29.97,SW,230,1.0,1.0,54,0.00,,OVC055,0.00,VWS V14.01,2013-04-02 04:30:00,
2013-04-02 00:35:00,48.5,32.6,29.98,SW,230,2.0,2.0,54,0.00,,OVC055,0.00,VWS V14.01,2013-04-02 04:35:00,
2013-04-02 00:40:00,48.2,31.9,29.98,SW,230,0.0,2.0,53,0.00,,OVC055,0.00,VWS V14.01,2013-04-02 04:40:00,
2013-04-02 00:45:00,47.2,35.7,29.98,NNW,335,0.0,3.0,64,0.00,,OVC055,0.00,VWS V14.01,2013-04-02 04:45:00,
2013-04-02 00:50:00,46.4,33.7,29.98,NNW,335,2.0,3.0,61,0.00,,OVC055,0.00,VWS V14.01,2013-04-02 04:50:00,
2013-04-02 00:55:00,45.4,34.3,29.98,NNW,335,1.0,3.0,65,0.00,,OVC055,0.00,VWS V14.01,2013-04-02 04:55:00,
2013-04-02 01:00:00,45.1,33.7,29.98,NNW,335,0.0,1.0,64,0.00,,OVC055,0.00,VWS V14.01,2013-04-02 05:00:00,
2013-04-02 01:05:00,45.1,33.3,29.99,NNW,335,0.0,1.0,63,0.00,,OVC055,0.00,VWS V14.01,2013-04-02 05:05:00,
2013-04-02 01:10:00,45.0,35.1,29.99,NNW,335,0.0,2.0,68,0.00,,OVC055,0.00,VWS V14.01,2013-04-02 05:10:00,
2013-04-02 01:15:00,44.1,35.7,29.99,NNW,335,0.0,2.0,72,0.00,,OVC055,0.00,VWS V14.01,2013-04-02 05:15:00,
2013-04-02 01:20:00,43.4,34.3,29.98,NNW,335,1.0,2.0,70,0.00,,OVC055,0.00,VWS V14.01,2013-04-02 05:20:00,
2013-04-02 01:25:00,43.2,34.1,29.99,NNW,335,0.0,2.0,70,0.00,,OVC055,0.00,VWS V14.01,2013-04-02 05:25:00,
2013-04-02 01:30:00,43.1,34.3,29.99,NNW,335,0.0,0.0,71,0.00,,OVC055,0.00,VWS V14.01,2013-04-02 05:30:00,
2013-04-02 01:35:00,42.7,34.0,29.99,NNW,335,1.0,2.0,71,0.00,,OVC055,0.00,VWS V14.01,2013-04-02 05:35:00,
2013-04-02 01:40:00,42.4,34.4,29.99,West,261,1.0,3.0,73,0.00,,OVC055,0.00,VWS V14.01,2013-04-02 05:40:00,
2013-04-02 01:45:00,42.2,34.2,29.99,West,261,0.0,3.0,73,0.00,,OVC055,0.00,VWS V14.01,2013-04-02 05:45:00,
2013-04-02 01:50:00,42.0,34.3,29.99,West,262,2.0,3.0,74,0.00,,OVC055,0.00,VWS V14.01,2013-04-02 05:50:00,
2013-04-02 01:55:00,41.1,33.8,29.99,West,262,0.0,3.0,75,0.00,,OVC055,0.00,VWS V14.01,2013-04-02 05:55:00,
2013-04-02 02:00:00,40.8,33.8,29.99,West,262,0.0,0.0,76,0.00,,OVC055,0.00,VWS V14.01,2013-04-02 06:00:00,
2013-04-02 02:05:00,40.6,34.0,29.99,West,262,1.0,1.0,77,0.00,,OVC055,0.00,VWS V14.01,2013-04-02 06:05:00,
2013-04-02 02:10:00,40.6,33.6,29.99,West,262,0.0,1.0,76,0.00,,OVC055,0.00,VWS V14.01,2013-04-02 06:10:00,
2013-04-02 02:15:00,40.5,33.5,29.99,West,262,0.0,1.0,76,0.00,,OVC055,0.00,VWS V14.01,2013-04-02 06:15:00,
2013-04-02 02:20:00,40.4,33.8,29.99,West,262,0.0,1.0,77,0.00,,OVC055,0.00,VWS V14.01,2013-04-02 06:20:00,
2013-04-02 02:25:00,40.2,33.6,29.99,West,262,0.0,1.0,77,0.00,,OVC055,0.00,VWS V14.01,2013-04-02 06:25:00,
2013-04-02 02:30:00,39.8,33.2,29.99,West,262,0.0,0.0,77,0.00,,OVC055,0.00,VWS V14.01,2013-04-02 06:30:00,
2013-04-02 02:35:00,39.5,32.9,30.00,West,262,0.0,1.0,77,0.00,,OVC055,0.00,VWS V14.01,2013-04-02 06:35:00,
2013-04-02 02:40:00,39.3,33.0,29.99,West,262,0.0,1.0,78,0.00,,OVC055,0.00,VWS V14.01,2013-04-02 06:40:00,
2013-04-02 02:45:00,39.1,33.5,29.99,West,262,0.0,1.0,80,0.00,,OVC055,0.00,VWS V14.01,2013-04-02 06:45:00,
2013-04-02 02:49:00,38.8,33.5,30.00,West,262,0.0,1.0,81,0.00,,OVC055,0.00,VWS V14.01,2013-04-02 06:49:00,
2013-04-02 02:54:00,38.5,33.2,29.99,West,262,0.0,1.0,81,0.00,,OVC055,0.00,VWS V14.01,2013-04-02 06:54:00,
2013-04-02 02:59:00,38.3,33.0,30.00,West,262,0.0,0.0,81,0.00,,OVC055,0.00,VWS V14.01,2013-04-02 06:59:00,
2013-04-02 03:00:00,38.3,33.0,30.00,West,262,0.0,1.0,81,0.00,,OVC055,0.00,VWS V14.01,2013-04-02 07:00:00,
2013-04-02 03:04:00,38.3,33.0,30.00,West,262,0.0,2.0,81,0.00,,OVC055,0.00,VWS V14.01,2013-04-02 07:04:00,
2013-04-02 03:09:00,38.2,32.9,30.00,West,262,0.0,2.0,81,0.00,,OVC055,0.00,VWS V14.01,2013-04-02 07:09:00,
2013-04-02 03:14:00,37.9,32.6,30.00,West,262,0.0,2.0,81,0.00,,OVC055,0.00,VWS V14.01,2013-04-02 07:14:00,
2013-04-02 03:19:00,37.8,32.5,30.00,West,262,0.0,2.0,81,0.00,,OVC055,0.00,VWS V14.01,2013-04-02 07:19:00,
2013-04-02 03:24:00,37.5,32.5,30.00,West,262,0.0,2.0,82,0.00,,OVC055,0.00,VWS V14.01,2013-04-02 07:24:00,
2013-04-02 03:29:00,37.7,33.0,30.00,West,262,1.0,1.0,83,0.00,,OVC055,0.00,VWS V14.01,2013-04-02 07:29:00,
2013-04-02 03:30:00,37.7,33.0,30.00,West,262,0.0,2.0,83,0.00,,OVC055,0.00,VWS V14.01,2013-04-02 07:30:00,
2013-04-02 03:34:00,38.1,32.8,30.00,West,262,0.0,1.0,81,0.00,,OVC055,0.00,VWS V14.01,2013-04-02 07:34:00,
2013-04-02 03:39:00,37.8,33.1,30.01,West,262,0.0,1.0,83,0.00,,OVC055,0.00,VWS V14.01,2013-04-02 07:39:00,
2013-04-02 03:44:00,37.2,32.8,30.01,West,262,0.0,1.0,84,0.00,,OVC055,0.00,VWS V14.01,2013-04-02 07:44:00,
2013-04-02 03:49:00,36.9,32.5,30.01,West,262,1.0,1.0,84,0.00,,OVC055,0.00,VWS V14.01,2013-04-02 07:49:00,
2013-04-02 03:54:00,36.8,32.1,30.01,West,262,0.0,1.0,83,0.00,,OVC055,0.00,VWS V14.01,2013-04-02 07:54:00,
2013-04-02 03:59:00,36.8,32.1,30.01,West,262,0.0,0.0,83,0.00,,OVC055,0.00,VWS V14.01,2013-04-02 07:59:00,
2013-04-02 04:00:00,36.8,32.1,30.01,West,262,0.0,2.0,83,0.00,,OVC055,0.00,VWS V14.01,2013-04-02 08:00:00,
2013-04-02 04:04:00,36.9,32.2,30.01,West,262,0.0,0.0,83,0.00,,OVC055,0.00,VWS V14.01,2013-04-02 08:04:00,
2013-04-02 04:09:00,36.9,32.5,30.01,West,262,0.0,0.0,84,0.00,,OVC055,0.00,VWS V14.01,2013-04-02 08:09:00,
2013-04-02 04:14:00,36.8,32.1,30.02,West,262,1.0,2.0,83,0.00,,OVC055,0.00,VWS V14.01,2013-04-02 08:14:00,
2013-04-02 04:19:00,37.0,32.3,30.02,West,262,0.0,2.0,83,0.00,,OVC055,0.00,VWS V14.01,2013-04-02 08:19:00,
2013-04-02 04:24:00,36.8,32.1,30.02,West,262,1.0,2.0,83,0.00,,OVC055,0.00,VWS V14.01,2013-04-02 08:24:00,
2013-04-02 04:29:00,37.0,32.6,30.02,West,262,0.0,0.0,84,0.00,,OVC055,0.00,VWS V14.01,2013-04-02 08:29:00,
2013-04-02 04:30:00,37.0,32.6,30.02,West,262,0.0,2.0,84,0.00,,OVC055,0.00,VWS V14.01,2013-04-02 08:30:00,
2013-04-02 04:34:00,36.9,32.5,30.03,West,262,0.0,0.0,84,0.00,,OVC055,0.00,VWS V14.01,2013-04-02 08:34:00,
2013-04-02 04:39:00,36.4,32.3,30.02,West,262,1.0,1.0,85,0.00,,OVC055,0.00,VWS V14.01,2013-04-02 08:39:00,
2013-04-02 04:44:00,36.1,32.3,30.03,West,262,0.0,1.0,86,0.00,,OVC055,0.00,VWS V14.01,2013-04-02 08:44:00,
2013-04-02 04:49:00,35.8,32.0,30.03,West,262,1.0,1.0,86,0.00,,OVC055,0.00,VWS V14.01,2013-04-02 08:49:00,
2013-04-02 04:54:00,35.6,32.1,30.04,West,262,0.0,1.0,87,0.00,,OVC055,0.00,VWS V14.01,2013-04-02 08:54:00,
2013-04-02 04:59:00,35.5,32.3,30.04,West,262,0.0,0.0,88,0.00,,OVC055,0.00,VWS V14.01,2013-04-02 08:59:00,
2013-04-02 05:00:00,35.5,32.0,30.04,West,262,0.0,1.0,87,0.00,,OVC055,0.00,VWS V14.01,2013-04-02 09:00:00,
2013-04-02 05:04:00,35.3,31.8,30.04,West,262,0.0,0.0,87,0.00,,OVC055,0.00,VWS V14.01,2013-04-02 09:04:00,
2013-04-02 05:09:00,35.1,31.9,30.05,West,262,0.0,1.0,88,0.00,,OVC055,0.00,VWS V14.01,2013-04-02 09:09:00,
2013-04-02 05:14:00,34.8,31.6,30.05,West,262,0.0,2.0,88,0.00,,OVC055,0.00,VWS V14.01,2013-04-02 09:14:00,
2013-04-02 05:19:00,34.7,31.8,30.05,West,262,0.0,2.0,89,0.00,,OVC055,0.00,VWS V14.01,2013-04-02 09:19:00,
2013-04-02 05:24:00,34.6,31.7,30.05,West,262,0.0,2.0,89,0.00,,OVC055,0.00,VWS V14.01,2013-04-02 09:24:00,
2013-04-02 05:29:00,34.6,32.0,30.05,West,262,0.0,0.0,90,0.00,,OVC055,0.00,VWS V14.01,2013-04-02 09:29:00,
2013-04-02 05:30:00,34.6,32.0,30.05,West,262,0.0,2.0,90,0.00,,OVC055,0.00,VWS V14.01,2013-04-02 09:30:00,
2013-04-02 05:34:00,34.4,31.8,30.06,West,262,0.0,1.0,90,0.00,,OVC055,0.00,VWS V14.01,2013-04-02 09:34:00,
2013-04-02 05:39:00,34.0,31.4,30.06,West,262,0.0,1.0,90,0.00,,OVC055,0.00,VWS V14.01,2013-04-02 09:39:00,
2013-04-02 05:44:00,33.8,31.5,30.06,West,262,0.0,1.0,91,0.00,,OVC055,0.00,VWS V14.01,2013-04-02 09:44:00,
2013-04-02 05:49:00,33.7,31.4,30.06,West,262,0.0,1.0,91,0.00,,OVC055,0.00,VWS V14.01,2013-04-02 09:49:00,
2013-04-02 05:54:00,33.8,31.7,30.06,West,262,0.0,1.0,92,0.00,,OVC055,0.00,VWS V14.01,2013-04-02 09:54:00,
2013-04-02 05:59:00,33.8,31.5,30.07,West,262,0.0,0.0,91,0.00,,OVC055,0.00,VWS V14.01,2013-04-02 09:59:00,
2013-04-02 06:00:00,33.8,31.5,30.07,West,262,0.0,1.0,91,0.00,,OVC055,0.00,VWS V14.01,2013-04-02 10:00:00,
2013-04-02 06:04:00,33.6,31.3,30.07,West,262,0.0,1.0,91,0.00,,OVC055,0.00,VWS V14.01,2013-04-02 10:04:00,
2013-04-02 06:09:00,33.5,31.2,30.07,West,262,0.0,1.0,91,0.00,,OVC055,0.00,VWS V14.01,2013-04-02 10:09:00,
2013-04-02 06:14:00,33.6,31.5,30.08,West,262,0.0,1.0,92,0.00,,OVC055,0.00,VWS V14.01,2013-04-02 10:14:00,
2013-04-02 06:19:00,33.5,31.4,30.09,West,262,0.0,1.0,92,0.00,,OVC055,0.00,VWS V14.01,2013-04-02 10:19:00,
2013-04-02 06:24:00,33.4,31.3,30.09,West,262,0.0,1.0,92,0.00,,OVC055,0.00,VWS V14.01,2013-04-02 10:24:00,
2013-04-02 06:29:00,33.4,31.3,30.09,West,262,0.0,0.0,92,0.00,,OVC055,0.00,VWS V14.01,2013-04-02 10:29:00,
2013-04-02 06:30:00,33.3,31.2,30.09,West,262,0.0,1.0,92,0.00,,OVC055,0.00,VWS V14.01,2013-04-02 10:30:00,
2013-04-02 06:34:00,33.3,31.5,30.09,West,262,0.0,0.0,93,0.00,,OVC055,0.00,VWS V14.01,2013-04-02 10:34:00,
2013-04-02 06:39:00,33.2,31.4,30.10,West,262,0.0,1.0,93,0.00,,OVC055,0.00,VWS V14.01,2013-04-02 10:39:00,
2013-04-02 06:44:00,33.0,31.2,30.10,West,262,0.0,1.0,93,0.00,,OVC055,0.00,VWS V14.01,2013-04-02 10:44:00,
2013-04-02 06:49:00,32.8,30.7,30.10,West,262,0.0,1.0,92,0.00,,OVC055,0.00,VWS V14.01,2013-04-02 10:49:00,
2013-04-02 06:54:00,32.6,30.8,30.11,West,262,0.0,1.0,93,0.00,,OVC055,0.00,VWS V14.01,2013-04-02 10:54:00,
2013-04-02 06:59:00,32.4,30.6,30.11,West,262,0.0,0.0,93,0.00,,OVC055,0.00,VWS V14.01,2013-04-02 10:59:00,
2013-04-02 07:00:00,32.4,30.6,30.10,West,262,0.0,1.0,93,0.00,,OVC055,0.00,VWS V14.01,2013-04-02 11:00:00,
2013-04-02 07:04:00,32.4,30.9,30.11,West,262,0.0,1.0,94,0.00,,OVC055,0.00,VWS V14.01,2013-04-02 11:04:00,
2013-04-02 07:09:00,32.4,30.9,30.10,West,262,0.0,1.0,94,0.00,,OVC055,0.00,VWS V14.01,2013-04-02 11:09:00,
2013-04-02 07:14:00,32.3,30.8,30.11,West,262,0.0,1.0,94,0.00,,OVC055,0.00,VWS V14.01,2013-04-02 11:14:00,
2013-04-02 07:19:00,32.2,30.7,30.11,West,262,0.0,1.0,94,0.00,,OVC055,0.00,VWS V14.01,2013-04-02 11:19:00,
2013-04-02 07:24:00,32.1,30.6,30.11,West,262,0.0,1.0,94,0.00,,OVC055,0.00,VWS V14.01,2013-04-02 11:24:00,
2013-04-02 07:29:00,31.9,30.4,30.11,West,262,0.0,1.0,94,0.00,,OVC055,0.00,VWS V14.01,2013-04-02 11:29:00,
2013-04-02 07:30:00,31.9,30.4,30.11,West,262,0.0,1.0,94,0.00,,OVC055,0.00,VWS V14.01,2013-04-02 11:30:00,
2013-04-02 07:34:00,31.9,30.6,30.11,West,262,0.0,0.0,95,0.00,,OVC055,0.00,VWS V14.01,2013-04-02 11:34:00,
2013-04-02 07:39:00,32.0,30.7,30.11,West,262,0.0,0.0,95,0.00,,OVC055,0.00,VWS V14.01,2013-04-02 11:39:00,
2013-04-02 07:44:00,32.1,30.8,30.12,West,262,0.0,1.0,95,0.00,,OVC055,0.00,VWS V14.01,2013-04-02 11:44:00,
2013-04-02 07:49:00,32.4,31.4,30.13,West,262,0.0,1.0,96,0.00,,OVC055,0.00,VWS V14.01,2013-04-02 11:49:00,
2013-04-02 07:54:00,32.8,31.8,30.13,West,262,0.0,1.0,96,0.00,,OVC055,0.00,VWS V14.01,2013-04-02 11:54:00,
2013-04-02 07:59:00,33.0,31.7,30.14,West,262,0.0,1.0,95,0.00,,OVC055,0.00,VWS V14.01,2013-04-02 11:59:00,
2013-04-02 08:00:00,33.0,31.7,30.14,West,262,0.0,1.0,95,0.00,,OVC055,0.00,VWS V14.01,2013-04-02 12:00:00,
2013-04-02 08:04:00,33.1,31.8,30.14,West,262,0.0,0.0,95,0.00,,OVC055,0.00,VWS V14.01,2013-04-02 12:04:00,
2013-04-02 08:09:00,33.2,31.9,30.14,West,262,0.0,1.0,95,0.00,,OVC055,0.00,VWS V14.01,2013-04-02 12:09:00,
2013-04-02 08:14:00,33.5,32.2,30.14,West,262,0.0,1.0,95,0.00,,OVC055,0.00,VWS V14.01,2013-04-02 12:14:00,
2013-04-02 08:19:00,33.8,32.5,30.15,West,262,0.0,1.0,95,0.00,,OVC055,0.00,VWS V14.01,2013-04-02 12:19:00,
2013-04-02 08:24:00,34.1,32.8,30.15,West,262,0.0,1.0,95,0.00,,OVC055,0.00,VWS V14.01,2013-04-02 12:24:00,
2013-04-02 08:29:00,34.7,33.4,30.15,West,262,0.0,0.0,95,0.00,,OVC055,0.00,VWS V14.01,2013-04-02 12:29:00,
2013-04-02 08:30:00,34.7,33.4,30.15,West,262,0.0,1.0,95,0.00,,OVC055,0.00,VWS V14.01,2013-04-02 12:30:00,
2013-04-02 08:34:00,35.2,33.7,30.15,West,262,1.0,1.0,94,0.00,,OVC055,0.00,VWS V14.01,2013-04-02 12:34:00,
2013-04-02 08:39:00,35.7,34.2,30.15,West,262,0.0,1.0,94,0.00,,OVC055,0.00,VWS V14.01,2013-04-02 12:39:00,
2013-04-02 08:44:00,36.0,34.4,30.15,West,262,0.0,1.0,94,0.00,,OVC055,0.00,VWS V14.01,2013-04-02 12:44:00,
2013-04-02 08:49:00,36.5,34.4,30.15,West,262,0.0,1.0,92,0.00,,OVC055,0.00,VWS V14.01,2013-04-02 12:49:00,
2013-04-02 08:54:00,37.1,34.2,30.15,West,262,0.0,2.0,89,0.00,,OVC055,0.00,VWS V14.01,2013-04-02 12:54:00,
2013-04-02 08:59:00,38.0,33.6,30.15,North,355,2.0,3.0,84,0.00,,OVC055,0.00,VWS V14.01,2013-04-02 12:59:00,
2013-04-02 09:00:00,38.0,33.6,30.15,North,355,2.0,3.0,84,0.00,,OVC055,0.00,VWS V14.01,2013-04-02 13:00:00,
2013-04-02 09:04:00,39.0,33.0,30.14,NNE,18,2.0,4.0,79,0.00,,OVC055,0.00,VWS V14.01,2013-04-02 13:04:00,
2013-04-02 09:09:00,39.8,32.9,30.15,NE,40,1.0,4.0,76,0.00,,OVC055,0.00,VWS V14.01,2013-04-02 13:09:00,
2013-04-02 09:14:00,40.5,31.5,30.15,ENE,59,0.0,5.0,70,0.00,,OVC055,0.00,VWS V14.01,2013-04-02 13:14:00,
2013-04-02 09:19:00,41.1,31.7,30.15,North,355,5.0,5.0,69,0.00,,OVC055,0.00,VWS V14.01,2013-04-02 13:19:00,
2013-04-02 09:24:00,41.5,31.7,30.16,North,10,6.0,7.0,68,0.00,,OVC055,0.00,VWS V14.01,2013-04-02 13:24:00,
2013-04-02 09:29:00,41.6,31.1,30.16,NNE,19,4.0,10.0,66,0.00,,OVC055,0.00,VWS V14.01,2013-04-02 13:29:00,
2013-04-02 09:30:00,41.6,31.1,30.16,NNE,19,4.0,10.0,66,0.00,,OVC055,0.00,VWS V14.01,2013-04-02 13:30:00,
2013-04-02 09:34:00,41.8,31.3,30.16,NE,40,4.0,9.0,66,0.00,,OVC055,0.00,VWS V14.01,2013-04-02 13:34:00,
2013-04-02 09:39:00,42.0,32.2,30.15,NNE,32,7.0,9.0,68,0.00,,OVC055,0.00,VWS V14.01,2013-04-02 13:39:00,
2013-04-02 09:44:00,42.1,30.8,30.15,NE,36,3.0,9.0,64,0.00,,OVC055,0.00,VWS V14.01,2013-04-02 13:44:00,
2013-04-02 09:49:00,42.7,31.4,30.15,NNE,24,4.0,9.0,64,0.00,,OVC055,0.00,VWS V14.01,2013-04-02 13:49:00,
2013-04-02 09:54:00,43.1,31.0,30.15,ENE,71,1.0,9.0,62,0.00,,OVC055,0.00,VWS V14.01,2013-04-02 13:54:00,
2013-04-02 09:59:00,43.3,31.2,30.15,NNE,12,6.0,9.0,62,0.00,,OVC055,0.00,VWS V14.01,2013-04-02 13:59:00,
2013-04-02 10:00:00,43.3,31.2,30.15,NNE,26,5.0,9.0,62,0.00,,OVC055,0.00,VWS V14.01,2013-04-02 14:00:00,
2013-04-02 10:04:00,43.3,31.2,30.16,NE,37,5.0,7.0,62,0.00,,OVC055,0.00,VWS V14.01,2013-04-02 14:04:00,
2013-04-02 10:09:00,43.3,30.8,30.16,NNE,23,1.0,7.0,61,0.00,,OVC055,0.00,VWS V14.01,2013-04-02 14:09:00,
2013-04-02 10:14:00,43.6,30.2,30.16,NE,40,3.0,7.0,59,0.00,,OVC055,0.00,VWS V14.01,2013-04-02 14:14:00,
2013-04-02 10:19:00,44.1,30.3,30.17,NNE,30,2.0,7.0,58,0.00,,OVC055,0.00,VWS V14.01,2013-04-02 14:19:00,
2013-04-02 10:24:00,44.8,31.8,30.16,NE,36,5.0,7.0,60,0.00,,OVC055,0.00,VWS V14.01,2013-04-02 14:24:00,
2013-04-02 10:28:00,44.9,31.0,30.17,NNE,32,2.0,7.0,58,0.00,,OVC055,0.00,VWS V14.01,2013-04-02 14:28:00,
2013-04-02 10:30:00,44.9,30.6,30.17,NNE,32,1.0,7.0,57,0.00,,OVC055,0.00,VWS V14.01,2013-04-02 14:30:00,
2013-04-02 10:33:00,45.1,31.6,30.17,NNE,33,0.0,3.0,59,0.00,,OVC055,0.00,VWS V14.01,2013-04-02 14:33:00,
2013-04-02 10:38:00,45.8,32.3,30.17,NNE,30,5.0,5.0,59,0.00,,OVC055,0.00,VWS V14.01,2013-04-02 14:38:00,
2013-04-02 10:43:00,45.7,31.8,30.17,North,5,4.0,7.0,58,0.00,,OVC055,0.00,VWS V14.01,2013-04-02 14:43:00,
2013-04-02 10:48:00,45.6,30.8,30.17,North,11,3.0,7.0,56,0.00,,OVC055,0.00,VWS V14.01,2013-04-02 14:48:00,
2013-04-02 10:53:00,45.9,32.0,30.17,NNE,28,4.0,7.0,58,0.00,,OVC055,0.00,VWS V14.01,2013-04-02 14:53:00,
2013-04-02 10:58:00,46.3,31.5,30.17,NE,36,5.0,7.0,56,0.00,,OVC055,0.00,VWS V14.01,2013-04-02 14:58:00,
2013-04-02 11:00:00,46.3,32.3,30.17,NNE,33,5.0,7.0,58,0.00,,OVC055,0.00,VWS V14.01,2013-04-02 15:00:00,
2013-04-02 11:03:00,46.6,31.3,30.16,NE,52,2.0,5.0,55,0.00,,OVC055,0.00,VWS V14.01,2013-04-02 15:03:00,
2013-04-02 11:08:00,46.9,32.5,30.16,NE,55,4.0,5.0,57,0.00,,OVC055,0.00,VWS V14.01,2013-04-02 15:08:00,
2013-04-02 11:13:00,47.1,31.3,30.16,SE,129,4.0,5.0,54,0.00,,OVC055,0.00,VWS V14.01,2013-04-02 15:13:00,
2013-04-02 11:18:00,47.7,32.3,30.16,NE,44,2.0,5.0,55,0.00,,OVC055,0.00,VWS V14.01,2013-04-02 15:18:00,
2013-04-02 11:23:00,48.2,33.7,30.16,NE,43,3.0,5.0,57,0.00,,OVC055,0.00,VWS V14.01,2013-04-02 15:23:00,
2013-04-02 11:28:00,48.8,32.9,30.16,NE,34,4.0,5.0,54,0.00,,OVC055,0.00,VWS V14.01,2013-04-02 15:28:00,
2013-04-02 11:30:00,48.8,31.0,30.16,NE,34,3.0,5.0,50,0.00,,OVC055,0.00,VWS V14.01,2013-04-02 15:30:00,
2013-04-02 11:33:00,49.1,31.8,30.16,NNE,21,2.0,5.0,51,0.00,,OVC055,0.00,VWS V14.01,2013-04-02 15:33:00,
2013-04-02 11:38:00,49.2,30.9,30.16,NNW,336,6.0,7.0,49,0.00,,OVC055,0.00,VWS V14.01,2013-04-02 15:38:00,
2013-04-02 11:43:00,49.3,32.0,30.16,NNE,14,4.0,7.0,51,0.00,,OVC055,0.00,VWS V14.01,2013-04-02 15:43:00,
2013-04-02 11:48:00,49.1,31.3,30.16,ENE,61,3.0,7.0,50,0.00,,OVC055,0.00,VWS V14.01,2013-04-02 15:48:00,
2013-04-02 11:54:00,49.6,31.2,30.16,North,5,2.0,7.0,49,0.00,,OVC055,0.00,VWS V14.01,2013-04-02 15:54:00,
2013-04-02 11:59:00,49.8,32.4,30.16,NNW,333,6.0,7.0,51,0.00,,OVC055,0.00,VWS V14.01,2013-04-02 15:59:00,
2013-04-02 12:00:00,49.9,32.5,30.16,North,360,4.0,7.0,51,0.00,,OVC055,0.00,VWS V14.01,2013-04-02 16:00:00,
2013-04-02 12:04:00,50.5,33.1,30.16,NNE,32,4.0,8.0,51,0.00,,OVC055,0.00,VWS V14.01,2013-04-02 16:04:00,
2013-04-02 12:09:00,50.9,33.4,30.16,NNE,19,6.0,9.0,51,0.00,,OVC055,0.00,VWS V14.01,2013-04-02 16:09:00,
2013-04-02 12:14:00,51.1,32.6,30.16,NNE,24,2.0,9.0,49,0.00,,OVC055,0.00,VWS V14.01,2013-04-02 16:14:00,
2013-04-02 12:19:00,51.4,31.9,30.15,NNE,32,3.0,9.0,47,0.00,,OVC055,0.00,VWS V14.01,2013-04-02 16:19:00,
2013-04-02 12:24:00,51.3,31.8,30.15,NNE,22,5.0,9.0,47,0.00,,OVC055,0.00,VWS V14.01,2013-04-02 16:24:00,
2013-04-02 12:29:00,51.5,30.3,30.15,North,350,2.0,9.0,44,0.00,,OVC055,0.00,VWS V14.01,2013-04-02 16:29:00,
2013-04-02 12:30:00,51.5,30.3,30.15,North,350,2.0,9.0,44,0.00,,OVC055,0.00,VWS V14.01,2013-04-02 16:30:00,
2013-04-02 12:34:00,52.1,30.9,30.14,NE,53,2.0,3.0,44,0.00,,OVC055,0.00,VWS V14.01,2013-04-02 16:34:00,
2013-04-02 12:39:00,52.7,29.7,30.14,SW,219,4.0,4.0,41,0.00,,OVC055,0.00,VWS V14.01,2013-04-02 16:39:00,
2013-04-02 12:44:00,52.9,29.2,30.14,NNE,23,1.0,5.0,40,0.00,,OVC055,0.00,VWS V14.01,2013-04-02 16:44:00,
2013-04-02 12:49:00,53.6,32.2,30.14,North,5,1.0,8.0,44,0.00,,OVC055,0.00,VWS V14.01,2013-04-02 16:49:00,
2013-04-02 12:54:00,53.7,29.4,30.14,ENE,66,2.0,8.0,39,0.00,,OVC055,0.00,VWS V14.01,2013-04-02 16:54:00,
2013-04-02 12:59:00,54.1,32.1,30.14,NNE,12,5.0,6.0,43,0.00,,OVC055,0.00,VWS V14.01,2013-04-02 16:59:00,
2013-04-02 13:00:00,54.0,31.5,30.14,NNE,15,4.0,8.0,42,0.00,,OVC055,0.00,VWS V14.01,2013-04-02 17:00:00,
2013-04-02 13:04:00,54.0,29.0,30.13,North,360,3.0,8.0,38,0.00,,OVC055,0.00,VWS V14.01,2013-04-02 17:04:00,
2013-04-02 13:09:00,54.4,29.3,30.13,NE,51,4.0,8.0,38,0.00,,OVC055,0.00,VWS V14.01,2013-04-02 17:09:00,
2013-04-02 13:14:00,54.6,28.9,30.12,North,5,4.0,8.0,37,0.00,,OVC055,0.00,VWS V14.01,2013-04-02 17:14:00,
2013-04-02 13:19:00,55.0,28.6,30.12,North,10,6.0,8.0,36,0.00,,OVC055,0.00,VWS V14.01,2013-04-02 17:19:00,
2013-04-02 13:24:00,54.9,30.4,30.11,NNE,18,6.0,9.0,39,0.00,,OVC055,0.00,VWS V14.01,2013-04-02 17:24:00,
2013-04-02 13:29:00,55.2,31.3,30.11,NNW,346,3.0,6.0,40,0.00,,OVC055,0.00,VWS V14.01,2013-04-02 17:29:00,
2013-04-02 13:30:00,55.2,31.3,30.11,North,5,6.0,9.0,40,0.00,,OVC055,0.00,VWS V14.01,2013-04-02 17:30:00,
2013-04-02 13:34:00,55.4,28.2,30.11,NNW,343,2.0,8.0,35,0.00,,OVC055,0.00,VWS V14.01,2013-04-02 17:34:00,
2013-04-02 13:39:00,55.7,29.9,30.10,NNE,19,6.0,8.0,37,0.00,,OVC055,0.00,VWS V14.01,2013-04-02 17:39:00,
2013-04-02 13:44:00,56.2,30.3,30.11,NNW,342,5.0,9.0,37,0.00,,OVC055,0.00,VWS V14.01,2013-04-02 17:44:00,
2013-04-02 13:49:00,56.4,26.9,30.10,NNE,22,7.0,9.0,32,0.00,,OVC055,0.00,VWS V14.01,2013-04-02 17:49:00,
2013-04-02 13:54:00,56.6,28.6,30.10,North,5,3.0,9.0,34,0.00,,OVC055,0.00,VWS V14.01,2013-04-02 17:54:00,
2013-04-02 13:59:00,56.6,29.3,30.10,NNE,27,5.0,5.0,35,0.00,,OVC055,0.00,VWS V14.01,2013-04-02 17:59:00,
2013-04-02 14:00:00,56.6,31.3,30.10,NE,49,4.0,9.0,38,0.00,,OVC055,0.00,VWS V14.01,2013-04-02 18:00:00,
2013-04-02 14:04:00,56.6,30.6,30.09,NNE,29,7.0,10.0,37,0.00,,OVC055,0.00,VWS V14.01,2013-04-02 18:04:00,
2013-04-02 14:09:00,57.0,31.0,30.09,ENE,58,7.0,10.0,37,0.00,,OVC055,0.00,VWS V14.01,2013-04-02 18:09:00,
2013-04-02 14:14:00,57.0,31.0,30.09,NNE,19,7.0,10.0,37,0.00,,OVC055,0.00,VWS V14.01,2013-04-02 18:14:00,
2013-04-02 14:19:00,57.2,29.1,30.09,NE,53,4.0,10.0,34,0.00,,OVC055,0.00,VWS V14.01,2013-04-02 18:19:00,
2013-04-02 14:24:00,57.5,29.4,30.08,NE,34,2.0,10.0,34,0.00,,OVC055,0.00,VWS V14.01,2013-04-02 18:24:00,
2013-04-02 14:29:00,57.7,30.3,30.09,NNE,27,4.0,6.0,35,0.00,,OVC055,0.00,VWS V14.01,2013-04-02 18:29:00,
2013-04-02 14:30:00,57.7,31.0,30.08,NE,38,6.0,10.0,36,0.00,,OVC055,0.00,VWS V14.01,2013-04-02 18:30:00,
2013-04-02 14:34:00,58.1,28.4,30.09,North,11,4.0,7.0,32,0.00,,OVC055,0.00,VWS V14.01,2013-04-02 18:34:00,
2013-04-02 14:39:00,58.7,28.2,30.08,NW,315,0.0,7.0,31,0.00,,OVC055,0.00,VWS V14.01,2013-04-02 18:39:00,
2013-04-02 14:44:00,59.3,29.5,30.08,North,355,0.0,7.0,32,0.00,,OVC055,0.00,VWS V14.01,2013-04-02 18:44:00,
2013-04-02 14:49:00,60.2,31.0,30.08,NE,48,2.0,7.0,33,0.00,,OVC055,0.00,VWS V14.01,2013-04-02 18:49:00,
2013-04-02 14:55:00,60.6,29.8,30.07,NNE,12,4.0,7.0,31,0.00,,OVC055,0.00,VWS V14.01,2013-04-02 18:55:00,
2013-04-02 15:00:00,60.9,32.4,30.08,NE,49,2.0,2.0,34,0.00,,OVC055,0.00,VWS V14.01,2013-04-02 19:00:00,
2013-04-02 15:05:00,61.7,22.5,30.07,NW,316,2.0,6.0,22,0.00,,OVC055,0.00,VWS V14.01,2013-04-02 19:05:00,
2013-04-02 15:10:00,62.8,22.3,30.07,NNW,348,3.0,9.0,21,0.00,,OVC055,0.00,VWS V14.01,2013-04-02 19:10:00,
2013-04-02 15:15:00,62.0,30.2,30.07,NE,44,5.0,11.0,30,0.00,,OVC055,0.00,VWS V14.01,2013-04-02 19:15:00,
2013-04-02 15:20:00,61.1,26.0,30.07,NE,36,3.0,13.0,26,0.00,,OVC055,0.00,VWS V14.01,2013-04-02 19:20:00,
2013-04-02 15:25:00,61.8,23.6,30.07,NNW,345,11.0,13.0,23,0.00,,OVC055,0.00,VWS V14.01,2013-04-02 19:25:00,
2013-04-02 15:30:00,62.3,23.0,30.07,SSW,205,4.0,8.0,22,0.00,,OVC055,0.00,VWS V14.01,2013-04-02 19:30:00,
2013-04-02 15:35:00,63.1,22.6,30.06,South,183,4.0,10.0,21,0.00,,OVC055,0.00,VWS V14.01,2013-04-02 19:35:00,
2013-04-02 15:40:00,64.0,22.1,30.06,NW,308,4.0,10.0,20,0.00,,OVC055,0.00,VWS V14.01,2013-04-02 19:40:00,
2013-04-02 15:45:00,64.5,22.6,30.06,WNW,300,3.0,12.0,20,0.00,,OVC055,0.00,VWS V14.01,2013-04-02 19:45:00,
2013-04-02 15:50:00,64.2,25.7,30.06,NNE,15,2.0,12.0,23,0.00,,OVC055,0.00,VWS V14.01,2013-04-02 19:50:00,
2013-04-02 15:55:00,64.5,22.6,30.06,North,355,4.0,12.0,20,0.00,,OVC055,0.00,VWS V14.01,2013-04-02 19:55:00,
2013-04-02 16:00:00,64.3,24.7,30.06,North,350,5.0,6.0,22,0.00,,OVC055,0.00,VWS V14.01,2013-04-02 20:00:00,
2013-04-02 16:05:00,64.7,27.1,30.05,WSW,256,2.0,7.0,24,0.00,,OVC055,0.00,VWS V14.01,2013-04-02 20:05:00,
2013-04-02 16:10:00,65.4,24.5,30.05,WNW,290,1.0,7.0,21,0.00,,OVC055,0.00,VWS V14.01,2013-04-02 20:10:00,
2013-04-02 16:15:00,65.7,23.6,30.05,NNW,339,4.0,8.0,20,0.00,,OVC055,0.00,VWS V14.01,2013-04-02 20:15:00,
2013-04-02 16:20:00,64.9,21.7,30.05,NW,313,2.0,8.0,19,0.00,,OVC055,0.00,VWS V14.01,2013-04-02 20:20:00,
2013-04-02 16:25:00,64.2,21.1,30.05,South,182,4.0,10.0,19,0.00,,OVC055,0.00,VWS V14.01,2013-04-02 20:25:00,
2013-04-02 16:30:00,64.1,19.8,30.05,West,261,3.0,4.0,18,0.00,,OVC055,0.00,VWS V14.01,2013-04-02 20:30:00,
2013-04-02 16:35:00,64.5,22.6,30.05,NW,312,9.0,9.0,20,0.00,,OVC055,0.00,VWS V14.01,2013-04-02 20:35:00,
2013-04-02 16:40:00,63.4,27.9,30.05,ENE,71,5.0,11.0,26,0.00,,OVC055,0.00,VWS V14.01,2013-04-02 20:40:00,
2013-04-02 16:45:00,62.9,29.3,30.05,SE,130,5.0,11.0,28,0.00,,OVC055,0.00,VWS V14.01,2013-04-02 20:45:00,
2013-04-02 16:50:00,61.4,30.5,30.04,North,5,7.0,11.0,31,0.00,,OVC055,0.00,VWS V14.01,2013-04-02 20:50:00,
2013-04-02 16:55:00,59.6,29.0,30.05,ENE,68,5.0,12.0,31,0.00,,OVC055,0.00,VWS V14.01,2013-04-02 20:55:00,
2013-04-02 17:00:00,59.3,28.7,30.05,NE,50,3.0,5.0,31,0.00,,OVC055,0.00,VWS V14.01,2013-04-02 21:00:00,
2013-04-02 17:05:00,59.0,29.2,30.05,NE,43,3.0,11.0,32,0.00,,OVC055,0.00,VWS V14.01,2013-04-02 21:05:00,
2013-04-02 17:10:00,58.1,29.9,30.06,North,9,6.0,11.0,34,0.00,,OVC055,0.00,VWS V14.01,2013-04-02 21:10:00,
2013-04-02 17:15:00,57.3,29.9,30.06,ENE,65,7.0,11.0,35,0.00,,OVC055,0.00,VWS V14.01,2013-04-02 21:15:00,
2013-04-02 17:20:00,57.0,28.9,30.06,ENE,65,3.0,11.0,34,0.00,,OVC055,0.00,VWS V14.01,2013-04-02 21:20:00,
2013-04-02 17:25:00,56.9,27.4,30.06,ENE,65,4.0,11.0,32,0.00,,OVC055,0.00,VWS V14.01,2013-04-02 21:25:00,
2013-04-02 17:30:00,56.6,28.6,30.07,NNE,32,4.0,6.0,34,0.00,,OVC055,0.00,VWS V14.01,2013-04-02 21:30:00,
2013-04-02 17:35:00,56.6,30.0,30.07,NE,48,7.0,8.0,36,0.00,,OVC055,0.00,VWS V14.01,2013-04-02 21:35:00,
2013-04-02 17:40:00,56.5,29.2,30.07,ENE,61,4.0,10.0,35,0.00,,OVC055,0.00,VWS V14.01,2013-04-02 21:40:00,
2013-04-02 17:45:00,56.6,28.6,30.08,NNE,18,4.0,10.0,34,0.00,,OVC055,0.00,VWS V14.01,2013-04-02 21:45:00,
2013-04-02 17:50:00,56.6,28.6,30.08,NNE,28,4.0,10.0,34,0.00,,OVC055,0.00,VWS V14.01,2013-04-02 21:50:00,
2013-04-02 17:55:00,56.6,27.9,30.07,NE,51,5.0,10.0,33,0.00,,OVC055,0.00,VWS V14.01,2013-04-02 21:55:00,
2013-04-02 18:00:00,56.6,28.6,30.08,ENE,63,0.0,1.0,34,0.00,,OVC055,0.00,VWS V14.01,2013-04-02 22:00:00,
2013-04-02 18:05:00,56.8,27.3,30.08,ENE,63,0.0,2.0,32,0.00,,OVC055,0.00,VWS V14.01,2013-04-02 22:05:00,
2013-04-02 18:10:00,57.1,29.0,30.08,NE,55,3.0,7.0,34,0.00,,OVC055,0.00,VWS V14.01,2013-04-02 22:10:00,
2013-04-02 18:15:00,56.5,28.5,30.08,ENE,72,3.0,9.0,34,0.00,,OVC055,0.00,VWS V14.01,2013-04-02 22:15:00,
2013-04-02 18:20:00,56.1,28.8,30.08,NE,49,2.0,9.0,35,0.00,,OVC055,0.00,VWS V14.01,2013-04-02 22:20:00,
2013-04-02 18:25:00,55.9,28.0,30.08,NNE,31,1.0,9.0,34,0.00,,OVC055,0.00,VWS V14.01,2013-04-02 22:25:00,
2013-04-02 18:30:00,55.5,26.1,30.08,NE,50,2.0,5.0,32,0.00,,OVC055,0.00,VWS V14.01,2013-04-02 22:30:00,
2013-04-02 18:35:00,55.2,26.6,30.09,NE,43,2.0,5.0,33,0.00,,OVC055,0.00,VWS V14.01,2013-04-02 22:35:00,
2013-04-02 18:40:00,54.9,24.9,30.09,ENE,59,2.0,10.0,31,0.00,,OVC055,0.00,VWS V14.01,2013-04-02 22:40:00,
2013-04-02 18:45:00,54.7,25.4,30.09,NE,44,4.0,10.0,32,0.00,,OVC055,0.00,VWS V14.01,2013-04-02 22:45:00,
2013-04-02 18:50:00,54.8,26.3,30.09,NNE,33,6.0,10.0,33,0.00,,OVC055,0.00,VWS V14.01,2013-04-02 22:50:00,
2013-04-02 18:55:00,54.6,25.4,30.09,NE,34,5.0,12.0,32,0.00,,OVC055,0.00,VWS V14.01,2013-04-02 22:55:00,
2013-04-02 19:00:00,54.3,25.1,30.09,NE,40,5.0,5.0,32,0.00,,OVC055,0.00,VWS V14.01,2013-04-02 23:00:00,
2013-04-02 19:05:00,53.9,24.7,30.10,NE,49,3.0,8.0,32,0.00,,OVC055,0.00,VWS V14.01,2013-04-02 23:05:00,
2013-04-02 19:10:00,53.5,25.8,30.10,NNE,30,3.0,8.0,34,0.00,,OVC055,0.00,VWS V14.01,2013-04-02 23:10:00,
2013-04-02 19:15:00,53.3,26.4,30.10,NNE,33,1.0,8.0,35,0.00,,OVC055,0.00,VWS V14.01,2013-04-02 23:15:00,
2013-04-02 19:20:00,53.1,27.5,30.10,NNE,33,3.0,8.0,37,0.00,,OVC055,0.00,VWS V14.01,2013-04-02 23:20:00,
2013-04-02 19:25:00,53.1,24.8,30.10,NE,51,0.0,8.0,33,0.00,,OVC055,0.00,VWS V14.01,2013-04-02 23:25:00,
2013-04-02 19:30:00,53.0,26.8,30.11,NNE,32,1.0,2.0,36,0.00,,OVC055,0.00,VWS V14.01,2013-04-02 23:30:00,
2013-04-02 19:35:00,52.8,23.8,30.11,North,360,4.0,5.0,32,0.00,,OVC055,0.00,VWS V14.01,2013-04-02 23:35:00,
2013-04-02 19:40:00,52.8,25.2,30.10,NE,52,0.0,5.0,34,0.00,,OVC055,0.00,VWS V14.01,2013-04-02 23:40:00,
2013-04-02 19:45:00,52.6,24.3,30.10,NE,53,2.0,5.0,33,0.00,,OVC055,0.00,VWS V14.01,2013-04-02 23:45:00,
2013-04-02 19:50:00,52.3,24.1,30.10,ENE,78,2.0,5.0,33,0.00,,OVC055,0.00,VWS V14.01,2013-04-02 23:50:00,
2013-04-02 19:55:00,52.1,25.3,30.10,ENE,57,2.0,5.0,35,0.00,,OVC055,0.00,VWS V14.01,2013-04-02 23:55:00,
2013-04-02 20:00:00,51.9,23.7,30.10,ENE,64,2.0,4.0,33,0.00,,OVC055,0.00,VWS V14.01,2013-04-03 00:00:00,
2013-04-02 20:05:00,51.6,24.2,30.11,NE,51,3.0,6.0,34,0.00,,OVC055,0.00,VWS V14.01,2013-04-03 00:05:00,
2013-04-02 20:10:00,51.4,25.4,30.11,NNE,31,1.0,8.0,36,0.00,,OVC055,0.00,VWS V14.01,2013-04-03 00:10:00,
2013-04-02 20:15:00,51.1,24.4,30.12,NE,40,2.0,8.0,35,0.00,,OVC055,0.00,VWS V14.01,2013-04-03 00:15:00,
2013-04-02 20:20:00,50.9,25.6,30.13,North,355,5.0,8.0,37,0.00,,OVC055,0.00,VWS V14.01,2013-04-03 00:20:00,
2013-04-02 20:25:00,50.8,25.5,30.13,NNE,33,2.0,8.0,37,0.00,,OVC055,0.00,VWS V14.01,2013-04-03 00:25:00,
2013-04-02 20:30:00,50.6,24.6,30.12,NE,55,2.0,4.0,36,0.00,,OVC055,0.00,VWS V14.01,2013-04-03 00:30:00,
2013-04-02 20:35:00,50.5,24.6,30.12,NNE,25,3.0,4.0,36,0.00,,OVC055,0.00,VWS V14.01,2013-04-03 00:35:00,
2013-04-02 20:40:00,50.4,25.8,30.12,NE,42,0.0,4.0,38,0.00,,OVC055,0.00,VWS V14.01,2013-04-03 00:40:00,
2013-04-02 20:45:00,50.3,26.9,30.12,NE,42,1.0,4.0,40,0.00,,OVC055,0.00,VWS V14.01,2013-04-03 00:45:00,
2013-04-02 20:50:00,50.0,24.8,30.12,ENE,61,2.0,4.0,37,0.00,,OVC055,0.00,VWS V14.01,2013-04-03 00:50:00,
2013-04-02 20:55:00,49.9,24.0,30.12,ENE,61,2.0,4.0,36,0.00,,OVC055,0.00,VWS V14.01,2013-04-03 00:55:00,
2013-04-02 21:00:00,49.8,25.9,30.12,NNE,31,0.0,1.0,39,0.00,,OVC055,0.00,VWS V14.01,2013-04-03 01:00:00,
2013-04-02 21:05:00,49.7,25.8,30.13,NNE,29,2.0,3.0,39,0.00,,OVC055,0.00,VWS V14.01,2013-04-03 01:05:00,
2013-04-02 21:10:00,49.6,26.3,30.13,NNE,29,0.0,3.0,40,0.00,,OVC055,0.00,VWS V14.01,2013-04-03 01:10:00,
2013-04-02 21:15:00,49.5,25.6,30.13,NNE,29,1.0,3.0,39,0.00,,OVC055,0.00,VWS V14.01,2013-04-03 01:15:00,
2013-04-02 21:20:00,49.4,26.7,30.13,NNE,28,2.0,4.0,41,0.00,,OVC055,0.00,VWS V14.01,2013-04-03 01:20:00,
2013-04-02 21:25:00,49.1,25.8,30.14,NNE,13,4.0,4.0,40,0.00,,OVC055,0.00,VWS V14.01,2013-04-03 01:25:00,
2013-04-02 21:30:00,48.9,26.2,30.14,North,9,2.0,3.0,41,0.00,,OVC055,0.00,VWS V14.01,2013-04-03 01:30:00,
2013-04-02 21:35:00,48.6,25.4,30.14,NNE,17,6.0,6.0,40,0.00,,OVC055,0.00,VWS V14.01,2013-04-03 01:35:00,
2013-04-02 21:40:00,48.5,26.5,30.14,NE,36,6.0,7.0,42,0.00,,OVC055,0.00,VWS V14.01,2013-04-03 01:40:00,
2013-04-02 21:46:00,48.4,24.0,30.15,NNE,24,4.0,7.0,38,0.00,,OVC055,0.00,VWS V14.01,2013-04-03 01:46:00,
2013-04-02 21:51:00,48.3,25.7,30.15,North,5,4.0,7.0,41,0.00,,OVC055,0.00,VWS V14.01,2013-04-03 01:51:00,
2013-04-02 21:55:00,48.1,26.1,30.15,North,5,3.0,7.0,42,0.00,,OVC055,0.00,VWS V14.01,2013-04-03 01:55:00,
2013-04-02 22:00:00,47.9,24.8,30.15,NE,44,3.0,4.0,40,0.00,,OVC055,0.00,VWS V14.01,2013-04-03 02:00:00,
2013-04-02 22:05:00,47.8,25.8,30.15,NE,44,2.0,4.0,42,0.00,,OVC055,0.00,VWS V14.01,2013-04-03 02:05:00,
2013-04-02 22:10:00,47.7,25.2,30.15,NE,43,2.0,4.0,41,0.00,,OVC055,0.00,VWS V14.01,2013-04-03 02:10:00,
2013-04-02 22:16:00,47.6,25.7,30.15,NE,43,2.0,4.0,42,0.00,,OVC055,0.00,VWS V14.01,2013-04-03 02:16:00,
2013-04-02 22:21:00,47.5,25.6,30.15,NE,43,1.0,4.0,42,0.00,,OVC055,0.00,VWS V14.01,2013-04-03 02:21:00,
2013-04-02 22:26:00,47.5,25.6,30.15,NE,43,0.0,4.0,42,0.00,,OVC055,0.00,VWS V14.01,2013-04-03 02:26:00,
2013-04-02 22:30:00,47.4,26.0,30.15,NE,40,2.0,4.0,43,0.00,,OVC055,0.00,VWS V14.01,2013-04-03 02:30:00,
2013-04-02 22:31:00,47.3,26.0,30.15,NE,39,2.0,2.0,43,0.00,,OVC055,0.00,VWS V14.01,2013-04-03 02:31:00,
2013-04-02 22:36:00,47.2,25.9,30.15,North,9,0.0,3.0,43,0.00,,OVC055,0.00,VWS V14.01,2013-04-03 02:36:00,
2013-04-02 22:41:00,47.0,26.2,30.15,NNE,23,1.0,3.0,44,0.00,,OVC055,0.00,VWS V14.01,2013-04-03 02:41:00,
2013-04-02 22:46:00,46.9,26.1,30.15,NNE,23,1.0,3.0,44,0.00,,OVC055,0.00,VWS V14.01,2013-04-03 02:46:00,
2013-04-02 22:51:00,46.8,27.1,30.16,North,5,0.0,4.0,46,0.00,,OVC055,0.00,VWS V14.01,2013-04-03 02:51:00,
2013-04-02 22:56:00,46.7,26.5,30.15,NNE,27,0.0,4.0,45,0.00,,OVC055,0.00,VWS V14.01,2013-04-03 02:56:00,
2013-04-02 23:00:00,46.6,25.9,30.15,NNE,27,0.0,4.0,44,0.00,,OVC055,0.00,VWS V14.01,2013-04-03 03:00:00,
2013-04-02 23:01:00,46.6,25.9,30.15,NNE,27,0.0,0.0,44,0.00,,OVC055,0.00,VWS V14.01,2013-04-03 03:01:00,
2013-04-02 23:06:00,46.5,26.9,30.15,NNE,27,0.0,1.0,46,0.00,,OVC055,0.00,VWS V14.01,2013-04-03 03:06:00,
2013-04-02 23:11:00,46.5,25.8,30.16,NNE,16,3.0,6.0,44,0.00,,OVC055,0.00,VWS V14.01,2013-04-03 03:11:00,
2013-04-02 23:16:00,46.5,26.3,30.16,NNE,28,2.0,6.0,45,0.00,,OVC055,0.00,VWS V14.01,2013-04-03 03:16:00,
2013-04-02 23:21:00,46.6,25.3,30.16,NNE,21,2.0,6.0,43,0.00,,OVC055,0.00,VWS V14.01,2013-04-03 03:21:00,
2013-04-02 23:26:00,46.6,26.4,30.16,NNE,31,3.0,6.0,45,0.00,,OVC055,0.00,VWS V14.01,2013-04-03 03:26:00,
2013-04-02 23:30:00,46.6,26.4,30.16,NNE,32,0.0,6.0,45,0.00,,OVC055,0.00,VWS V14.01,2013-04-03 03:30:00,
2013-04-02 23:31:00,46.5,25.2,30.16,North,355,1.0,4.0,43,0.00,,OVC055,0.00,VWS V14.01,2013-04-03 03:31:00,
2013-04-02 23:36:00,46.5,26.9,30.16,NNE,26,0.0,4.0,46,0.00,,OVC055,0.00,VWS V14.01,2013-04-03 03:36:00,
2013-04-02 23:42:00,46.4,25.7,30.16,NE,36,1.0,4.0,44,0.00,,OVC055,0.00,VWS V14.01,2013-04-03 03:42:00,
2013-04-02 23:47:00,46.4,25.7,30.16,ENE,61,2.0,4.0,44,0.00,,OVC055,0.00,VWS V14.01,2013-04-03 03:47:00,
2013-04-02 23:52:00,46.3,25.6,30.16,ENE,59,2.0,4.0,44,0.00,,OVC055,0.00,VWS V14.01,2013-04-03 03:52:00,
2013-04-02 23:57:00,46.2,25.5,30.16,NNE,33,3.0,4.0,44,0.00,,OVC055,0.00,VWS V14.01,2013-04-03 03:57:00,